createdAt,value
2023-02-25T00:01:15.058Z,99243.06
2023-02-25T00:03:16.776Z,99245.75
2023-02-25T00:05:19.100Z,99248.66
2023-02-25T00:07:20.944Z,99242.44
2023-02-25T00:09:22.484Z,99247.00
2023-02-25T00:11:25.579Z,99248.00
2023-02-25T00:13:29.358Z,99249.06
2023-02-25T00:15:31.036Z,99247.22
2023-02-25T00:17:33.326Z,99248.22
2023-02-25T00:19:34.959Z,99245.72
2023-02-25T00:21:36.698Z,99247.41
2023-02-25T00:23:38.305Z,99251.94
2023-02-25T00:25:40.072Z,99253.19
2023-02-25T00:27:41.627Z,99256.50
2023-02-25T00:29:44.666Z,99247.81
2023-02-25T00:31:46.437Z,99255.88
2023-02-25T00:33:48.998Z,99260.25
2023-02-25T00:35:50.720Z,99258.56
2023-02-25T00:37:52.317Z,99258.34
2023-02-25T00:39:53.934Z,99257.56
2023-02-25T00:41:55.795Z,99262.72
2023-02-25T00:43:59.166Z,99261.88
2023-02-25T00:46:02.119Z,99255.66
2023-02-25T00:48:03.820Z,99260.03
2023-02-25T00:50:07.848Z,99264.56
2023-02-25T00:52:09.564Z,99262.72
2023-02-25T00:54:11.264Z,99266.44
2023-02-25T00:56:14.636Z,99263.13
2023-02-25T00:58:16.195Z,99265.63
2023-02-25T01:00:18.947Z,99254.03
2023-02-25T01:02:21.871Z,99261.03
2023-02-25T01:04:23.801Z,99263.94
2023-02-25T01:06:27.894Z,99253.38
2023-02-25T01:08:29.901Z,99252.34
2023-02-25T01:10:31.457Z,99257.75
2023-02-25T01:12:33.167Z,99255.88
2023-02-25T01:14:34.786Z,99254.03
2023-02-25T01:16:37.297Z,99254.03
2023-02-25T01:18:40.660Z,99256.72
2023-02-25T01:20:42.228Z,99256.72
2023-02-25T01:22:44.078Z,99254.88
2023-02-25T01:24:45.929Z,99255.88
2023-02-25T01:26:50.772Z,99260.25
2023-02-25T01:28:52.593Z,99255.47
2023-02-25T01:30:54.337Z,99263.72
2023-02-25T01:32:56.088Z,99266.44
2023-02-25T01:34:59.077Z,99270.78
2023-02-25T01:37:00.943Z,99267.91
2023-02-25T01:39:03.717Z,99271.44
2023-02-25T01:41:05.407Z,99269.75
2023-02-25T01:43:14.761Z,99274.91
2023-02-25T01:45:32.590Z,99273.47
2023-02-25T01:47:37.627Z,99279.69
2023-02-25T01:49:45.096Z,99281.94
2023-02-25T01:51:51.786Z,99284.66
2023-02-25T01:53:55.997Z,99291.88
2023-02-25T01:55:58.995Z,99291.69
2023-02-25T01:58:10.247Z,99290.84
2023-02-25T02:00:13.109Z,99287.53
2023-02-25T02:02:19.245Z,99300.13
2023-02-25T02:04:22.432Z,99298.50
2023-02-25T02:06:27.452Z,99300.53
2023-02-25T02:08:33.041Z,99303.06
2023-02-25T02:10:34.811Z,99308.44
2023-02-25T02:12:40.622Z,99311.13
2023-02-25T02:14:43.225Z,99305.94
2023-02-25T02:17:09.231Z,99312.97
2023-02-25T02:19:27.333Z,99323.13
2023-02-25T02:21:45.867Z,99318.53
2023-02-25T02:24:20.605Z,99322.06
2023-02-25T02:26:53.279Z,99329.31
2023-02-25T02:29:34.315Z,99322.06
2023-02-25T02:31:51.709Z,99333.22
2023-02-25T02:34:04.197Z,99338.63
2023-02-25T02:36:12.525Z,99335.31
2023-02-25T02:38:23.856Z,99347.94
2023-02-25T02:40:39.132Z,99356.84
2023-02-25T02:42:51.754Z,99357.66
2023-02-25T02:45:01.590Z,99363.03
2023-02-25T02:47:09.755Z,99366.53
2023-02-25T02:49:19.198Z,99368.44
2023-02-25T02:51:26.603Z,99359.31
2023-02-25T02:53:34.559Z,99363.03
2023-02-25T02:55:39.957Z,99359.31
2023-02-25T02:57:42.550Z,99369.44
2023-02-25T02:59:50.132Z,99374.59
2023-02-25T03:01:57.383Z,99376.50
2023-02-25T03:04:04.661Z,99378.34
2023-02-25T03:06:11.181Z,99381.03
2023-02-25T03:08:17.698Z,99394.50
2023-02-25T03:10:22.670Z,99377.69
2023-02-25T03:12:24.681Z,99392.81
2023-02-25T03:14:26.501Z,99401.91
2023-02-25T03:16:35.264Z,99393.84
2023-02-25T03:18:41.405Z,99411.84
2023-02-25T03:20:49.143Z,99416.19
2023-02-25T03:22:55.376Z,99411.84
2023-02-25T03:25:03.987Z,99416.38
2023-02-25T03:27:22.343Z,99425.09
2023-02-25T03:29:28.125Z,99432.53
2023-02-25T03:31:35.107Z,99430.66
2023-02-25T03:33:42.712Z,99449.50
2023-02-25T03:35:49.278Z,99449.50
2023-02-25T03:37:54.392Z,99447.84
2023-02-25T03:40:01.324Z,99452.19
2023-02-25T03:42:04.786Z,99457.78
2023-02-25T03:44:13.341Z,99464.00
2023-02-25T03:46:17.400Z,99469.56
2023-02-25T03:48:19.124Z,99461.50
2023-02-25T03:50:23.816Z,99475.97
2023-02-25T03:52:29.178Z,99484.03
2023-02-25T03:54:30.719Z,99485.06
2023-02-25T03:56:41.365Z,99500.16
2023-02-25T03:58:43.621Z,99505.75
2023-02-25T04:00:48.496Z,99501.41
2023-02-25T04:02:51.246Z,99514.84
2023-02-25T04:04:52.890Z,99510.47
2023-02-25T04:06:54.489Z,99514.22
2023-02-25T04:08:57.945Z,99514.00
2023-02-25T04:10:59.832Z,99514.00
2023-02-25T04:13:02.144Z,99537.19
2023-02-25T04:15:04.548Z,99532.84
2023-02-25T04:17:06.104Z,99540.06
2023-02-25T04:19:07.625Z,99538.44
2023-02-25T04:21:09.904Z,99539.44
2023-02-25T04:23:13.994Z,99544.16
2023-02-25T04:25:17.097Z,99549.56
2023-02-25T04:27:19.147Z,99555.16
2023-02-25T04:29:20.962Z,99555.97
2023-02-25T04:31:24.979Z,99557.84
2023-02-25T04:33:26.740Z,99573.97
2023-02-25T04:35:28.518Z,99574.16
2023-02-25T04:37:30.760Z,99573.31
2023-02-25T04:39:32.852Z,99583.22
2023-02-25T04:41:36.808Z,99581.59
2023-02-25T04:43:38.600Z,99586.97
2023-02-25T04:45:40.447Z,99587.81
2023-02-25T04:47:42.358Z,99585.28
2023-02-25T04:49:43.959Z,99596.22
2023-02-25T04:51:48.085Z,99607.81
2023-02-25T04:53:49.937Z,99597.28
2023-02-25T04:55:51.765Z,99611.56
2023-02-25T04:57:55.100Z,99598.28
2023-02-25T04:59:56.689Z,99605.53
2023-02-25T05:01:58.552Z,99610.28
2023-02-25T05:04:00.543Z,99616.66
2023-02-25T05:06:03.531Z,99616.00
2023-02-25T05:08:05.160Z,99621.59
2023-02-25T05:10:08.528Z,99624.47
2023-02-25T05:12:10.169Z,99625.50
2023-02-25T05:14:13.184Z,99631.91
2023-02-25T05:16:16.775Z,99635.59
2023-02-25T05:18:18.379Z,99633.94
2023-02-25T05:20:20.031Z,99649.22
2023-02-25T05:22:21.651Z,99645.06
2023-02-25T05:24:23.183Z,99641.09
2023-02-25T05:26:26.428Z,99652.91
2023-02-25T05:28:28.134Z,99655.75
2023-02-25T05:30:31.103Z,99663.16
2023-02-25T05:32:33.213Z,99664.22
2023-02-25T05:34:35.266Z,99668.09
2023-02-25T05:36:36.901Z,99668.28
2023-02-25T05:38:38.857Z,99675.69
2023-02-25T05:40:41.945Z,99683.97
2023-02-25T05:42:43.607Z,99676.06
2023-02-25T05:44:45.497Z,99684.34
2023-02-25T05:46:48.542Z,99688.03
2023-02-25T05:48:50.524Z,99692.75
2023-02-25T05:50:59.619Z,99707.41
2023-02-25T05:53:01.368Z,99696.88
2023-02-25T05:55:03.427Z,99701.56
2023-02-25T05:57:05.775Z,99713.53
2023-02-25T05:59:07.336Z,99727.16
2023-02-25T06:01:10.439Z,99723.00
2023-02-25T06:03:13.735Z,99732.06
2023-02-25T06:05:15.469Z,99733.06
2023-02-25T06:07:17.354Z,99737.81
2023-02-25T06:09:20.696Z,99742.53
2023-02-25T06:11:24.464Z,99748.09
2023-02-25T06:13:26.794Z,99746.63
2023-02-25T06:15:28.492Z,99764.59
2023-02-25T06:17:30.160Z,99760.38
2023-02-25T06:19:33.429Z,99764.97
2023-02-25T06:21:36.465Z,99783.75
2023-02-25T06:23:40.081Z,99784.09
2023-02-25T06:25:41.644Z,99787.63
2023-02-25T06:27:43.484Z,99797.72
2023-02-25T06:29:47.933Z,99802.91
2023-02-25T06:31:50.442Z,99805.31
2023-02-25T06:33:53.088Z,99800.78
2023-02-25T06:35:56.195Z,99821.44
2023-02-25T06:37:59.541Z,99816.25
2023-02-25T06:40:01.117Z,99828.00
2023-02-25T06:42:02.841Z,99835.25
2023-02-25T06:44:04.573Z,99837.25
2023-02-25T06:46:07.699Z,99845.31
2023-02-25T06:48:10.040Z,99840.94
2023-02-25T06:50:11.941Z,99850.88
2023-02-25T06:52:15.872Z,99845.31
2023-02-25T06:54:18.343Z,99855.22
2023-02-25T06:56:19.925Z,99862.63
2023-02-25T06:58:21.947Z,99864.31
2023-02-25T07:00:23.617Z,99863.47
2023-02-25T07:02:25.283Z,99869.00
2023-02-25T07:04:26.870Z,99874.38
2023-02-25T07:06:28.545Z,99878.91
2023-02-25T07:08:31.832Z,99882.28
2023-02-25T07:10:33.931Z,99891.19
2023-02-25T07:12:35.548Z,99890.34
2023-02-25T07:14:37.474Z,99896.53
2023-02-25T07:16:39.327Z,99901.06
2023-02-25T07:18:41.726Z,99907.28
2023-02-25T07:20:43.416Z,99910.78
2023-02-25T07:22:45.261Z,99905.59
2023-02-25T07:24:48.390Z,99910.13
2023-02-25T07:26:50.516Z,99917.34
2023-02-25T07:28:52.186Z,99919.03
2023-02-25T07:30:54.125Z,99920.88
2023-02-25T07:32:55.842Z,99931.63
2023-02-25T07:34:57.459Z,99935.53
2023-02-25T07:36:58.985Z,99940.69
2023-02-25T07:39:01.781Z,99952.63
2023-02-25T07:41:06.663Z,99961.53
2023-02-25T07:43:08.537Z,99964.38
2023-02-25T07:45:11.693Z,99981.97
2023-02-25T07:47:13.804Z,99975.81
2023-02-25T07:49:15.668Z,99981.81
2023-02-25T07:51:21.301Z,99988.88
2023-02-25T07:53:23.629Z,99988.03
2023-02-25T07:55:25.612Z,99992.41
2023-02-25T07:57:29.617Z,99996.72
2023-02-25T07:59:31.750Z,100000.25
2023-02-25T08:01:34.276Z,100003.78
2023-02-25T08:03:36.113Z,100006.47
2023-02-25T08:05:38.671Z,100004.78
2023-02-25T08:07:40.204Z,100010.00
2023-02-25T08:09:42.473Z,100010.00
2023-02-25T08:11:44.442Z,100018.06
2023-02-25T08:13:47.430Z,100020.91
2023-02-25T08:15:49.165Z,100020.09
2023-02-25T08:17:51.116Z,100033.53
2023-02-25T08:19:52.723Z,100034.53
2023-02-25T08:21:54.241Z,100040.06
2023-02-25T08:23:55.867Z,100038.22
2023-02-25T08:25:59.264Z,100041.06
2023-02-25T08:28:01.482Z,100042.09
2023-02-25T08:30:04.862Z,100041.25
2023-02-25T08:32:07.036Z,100046.81
2023-02-25T08:34:08.686Z,100060.22
2023-02-25T08:36:12.203Z,100067.28
2023-02-25T08:38:13.793Z,100069.97
2023-02-25T08:40:15.325Z,100082.41
2023-02-25T08:42:16.899Z,100081.19
2023-02-25T08:44:20.050Z,100080.34
2023-02-25T08:46:24.982Z,100085.72
2023-02-25T08:48:26.650Z,100084.56
2023-02-25T08:50:28.268Z,100091.44
2023-02-25T08:52:30.038Z,100095.78
2023-02-25T08:54:31.814Z,100095.59
2023-02-25T08:56:33.527Z,100108.03
2023-02-25T08:58:35.518Z,100107.19
2023-02-25T09:00:37.104Z,100108.03
2023-02-25T09:02:40.311Z,100118.94
2023-02-25T09:04:42.005Z,100114.41
2023-02-25T09:06:44.027Z,100117.09
2023-02-25T09:08:45.880Z,100129.03
2023-02-25T09:10:50.625Z,100129.69
2023-02-25T09:12:52.591Z,100138.78
2023-02-25T09:14:54.244Z,100135.06
2023-02-25T09:16:57.769Z,100139.78
2023-02-25T09:19:00.730Z,100152.84
2023-02-25T09:21:02.234Z,100149.16
2023-02-25T09:23:03.822Z,100155.38
2023-02-25T09:25:06.457Z,100157.03
2023-02-25T09:27:08.356Z,100162.09
2023-02-25T09:29:10.442Z,100169.94
2023-02-25T09:31:12.480Z,100178.50
2023-02-25T09:33:14.648Z,100178.34
2023-02-25T09:35:18.088Z,100179.84
2023-02-25T09:37:19.705Z,100184.84
2023-02-25T09:39:21.504Z,100191.75
2023-02-25T09:41:31.890Z,100186.38
2023-02-25T09:43:40.890Z,100195.09
2023-02-25T09:45:42.896Z,100210.03
2023-02-25T09:47:50.398Z,100205.31
2023-02-25T09:49:58.015Z,100203.47
2023-02-25T09:52:06.054Z,100201.09
2023-02-25T09:54:18.844Z,100205.94
2023-02-25T09:56:24.368Z,100214.84
2023-02-25T09:58:31.746Z,100219.88
2023-02-25T10:00:40.221Z,100227.44
2023-02-25T10:02:49.823Z,100227.41
2023-02-25T10:05:06.926Z,100229.00
2023-02-25T10:07:19.831Z,100227.13
2023-02-25T10:09:30.544Z,100235.53
2023-02-25T10:11:46.524Z,100233.13
2023-02-25T10:13:56.456Z,100235.28
2023-02-25T10:16:06.621Z,100246.38
2023-02-25T10:18:26.912Z,100254.72
2023-02-25T10:20:46.622Z,100260.44
2023-02-25T10:22:59.201Z,100246.78
2023-02-25T10:25:09.597Z,100258.03
2023-02-25T10:27:20.542Z,100269.47
2023-02-25T10:29:27.998Z,100268.47
2023-02-25T10:31:30.897Z,100271.16
2023-02-25T10:33:36.340Z,100287.28
2023-02-25T10:35:40.632Z,100291.00
2023-02-25T10:37:42.596Z,100302.41
2023-02-25T10:39:46.148Z,100297.88
2023-02-25T10:41:47.844Z,100303.94
2023-02-25T10:43:51.157Z,100304.78
2023-02-25T10:46:00.460Z,100309.09
2023-02-25T10:48:07.257Z,100312.47
2023-02-25T10:50:42.988Z,100312.97
2023-02-25T10:53:02.512Z,100310.91
2023-02-25T10:55:26.938Z,100325.91
2023-02-25T10:57:40.366Z,100320.69
2023-02-25T10:59:42.680Z,100327.91
2023-02-25T11:01:44.400Z,100330.44
2023-02-25T11:03:54.037Z,100331.09
2023-02-25T11:06:09.336Z,100334.97
2023-02-25T11:08:27.752Z,100337.31
2023-02-25T11:10:30.924Z,100344.75
2023-02-25T11:12:41.503Z,100352.81
2023-02-25T11:14:43.226Z,100350.28
2023-02-25T11:16:46.643Z,100358.38
2023-02-25T11:18:53.099Z,100352.81
2023-02-25T11:20:58.228Z,100356.31
2023-02-25T11:23:00.410Z,100360.91
2023-02-25T11:25:07.161Z,100361.53
2023-02-25T11:27:30.625Z,100374.84
2023-02-25T11:29:36.756Z,100369.63
2023-02-25T11:31:41.015Z,100371.31
2023-02-25T11:33:45.526Z,100378.69
2023-02-25T11:35:55.866Z,100377.53
2023-02-25T11:37:58.787Z,100382.91
2023-02-25T11:40:00.669Z,100389.94
2023-02-25T11:42:22.067Z,100387.94
2023-02-25T11:44:27.303Z,100395.19
2023-02-25T11:46:30.456Z,100400.72
2023-02-25T11:48:45.825Z,100391.47
2023-02-25T11:50:56.122Z,100402.41
2023-02-25T11:53:08.978Z,100397.66
2023-02-25T11:55:20.615Z,100403.91
2023-02-25T11:57:32.353Z,100404.75
2023-02-25T11:59:37.903Z,100410.31
2023-02-25T12:01:57.484Z,100411.81
2023-02-25T12:04:36.033Z,100415.16
2023-02-25T12:06:55.775Z,100428.63
2023-02-25T12:09:34.068Z,100420.38
2023-02-25T12:12:14.358Z,100419.19
2023-02-25T12:14:53.877Z,100432.63
2023-02-25T12:17:14.376Z,100438.22
2023-02-25T12:19:50.031Z,100443.41
2023-02-25T12:22:13.783Z,100446.09
2023-02-25T12:24:48.306Z,100452.16
2023-02-25T12:27:15.374Z,100453.81
2023-02-25T12:29:36.011Z,100460.06
2023-02-25T12:32:01.537Z,100455.50
2023-02-25T12:34:26.836Z,100460.06
2023-02-25T12:36:56.471Z,100466.28
2023-02-25T12:39:23.103Z,100468.13
2023-02-25T12:41:38.195Z,100475.56
2023-02-25T12:43:48.566Z,100475.91
2023-02-25T12:46:12.191Z,100481.09
2023-02-25T12:48:44.001Z,100484.16
2023-02-25T12:51:05.683Z,100487.03
2023-02-25T12:53:37.593Z,100489.91
2023-02-25T12:56:02.965Z,100491.91
2023-02-25T12:58:24.717Z,100494.78
2023-02-25T13:00:56.971Z,100494.28
2023-02-25T13:03:24.478Z,100503.72
2023-02-25T13:05:54.494Z,100504.72
2023-02-25T13:08:15.936Z,100511.47
2023-02-25T13:10:46.330Z,100512.31
2023-02-25T13:13:03.423Z,100510.63
2023-02-25T13:15:12.550Z,100509.81
2023-02-25T13:17:56.790Z,100520.22
2023-02-25T13:20:24.775Z,100518.38
2023-02-25T13:22:44.412Z,100521.22
2023-02-25T13:24:52.993Z,100533.19
2023-02-25T13:27:26.826Z,100530.31
2023-02-25T13:29:57.617Z,100534.53
2023-02-25T13:32:18.541Z,100539.22
2023-02-25T13:34:34.961Z,100535.53
2023-02-25T13:36:54.290Z,100541.06
2023-02-25T13:39:19.509Z,100550.34
2023-02-25T13:41:50.093Z,100551.00
2023-02-25T13:44:08.821Z,100548.66
2023-02-25T13:46:27.503Z,100554.03
2023-02-25T13:48:58.873Z,100557.56
2023-02-25T13:51:16.900Z,100564.81
2023-02-25T13:53:36.910Z,100574.72
2023-02-25T13:56:02.324Z,100565.16
2023-02-25T13:58:25.604Z,100570.53
2023-02-25T14:00:56.374Z,100576.09
2023-02-25T14:03:15.983Z,100572.72
2023-02-25T14:05:31.566Z,100576.75
2023-02-25T14:07:47.191Z,100597.28
2023-02-25T14:09:58.899Z,100591.41
2023-02-25T14:12:12.919Z,100594.09
2023-02-25T14:14:36.475Z,100607.56
2023-02-25T14:16:53.366Z,100603.16
2023-02-25T14:19:17.742Z,100606.88
2023-02-25T14:22:12.124Z,100620.16
2023-02-25T14:24:23.501Z,100611.44
2023-02-25T14:26:37.937Z,100623.00
2023-02-25T14:28:48.354Z,100616.81
2023-02-25T14:31:06.756Z,100623.00
2023-02-25T14:33:30.312Z,100617.81
2023-02-25T14:35:46.684Z,100629.22
2023-02-25T14:38:03.186Z,100635.31
2023-02-25T14:40:23.783Z,100633.97
2023-02-25T14:42:41.539Z,100641.19
2023-02-25T14:44:50.324Z,100644.72
2023-02-25T14:46:59.423Z,100650.78
2023-02-25T14:49:07.777Z,100658.69
2023-02-25T14:51:34.089Z,100644.38
2023-02-25T14:53:50.718Z,100656.84
2023-02-25T14:56:33.819Z,100671.97
2023-02-25T14:59:00.565Z,100669.75
2023-02-25T15:01:17.641Z,100678.19
2023-02-25T15:03:42.982Z,100677.66
2023-02-25T15:06:00.671Z,100690.47
2023-02-25T15:08:27.245Z,100696.84
2023-02-25T15:10:56.165Z,100697.84
2023-02-25T15:13:17.196Z,100703.41
2023-02-25T15:15:38.303Z,100717.03
2023-02-25T15:18:11.727Z,100719.91
2023-02-25T15:20:31.844Z,100722.06
2023-02-25T15:22:33.899Z,100724.22
2023-02-25T15:24:38.559Z,100733.47
2023-02-25T15:26:44.356Z,100724.75
2023-02-25T15:28:46.429Z,100733.97
2023-02-25T15:31:09.323Z,100737.50
2023-02-25T15:33:23.701Z,100740.53
2023-02-25T15:35:56.287Z,100738.81
2023-02-25T15:38:08.465Z,100737.97
2023-02-25T15:40:42.415Z,100751.63
2023-02-25T15:42:49.682Z,100751.94
2023-02-25T15:44:51.703Z,100762.00
2023-02-25T15:47:11.913Z,100762.69
2023-02-25T15:49:22.195Z,100773.78
2023-02-25T15:51:43.469Z,100768.41
2023-02-25T15:53:46.456Z,100762.47
2023-02-25T15:55:50.071Z,100777.81
2023-02-25T15:57:51.604Z,100780.66
2023-02-25T15:59:55.296Z,100780.78
2023-02-25T16:01:56.979Z,100785.34
2023-02-25T16:03:58.843Z,100788.88
2023-02-25T16:06:04.107Z,100791.88
2023-02-25T16:08:16.431Z,100795.59
2023-02-25T16:10:24.054Z,100790.69
2023-02-25T16:12:27.049Z,100805.13
2023-02-25T16:14:31.607Z,100801.59
2023-02-25T16:16:37.094Z,100809.00
2023-02-25T16:18:41.545Z,100814.53
2023-02-25T16:20:47.730Z,100815.69
2023-02-25T16:22:55.611Z,100818.38
2023-02-25T16:25:00.692Z,100816.69
2023-02-25T16:27:06.913Z,100821.41
2023-02-25T16:29:20.939Z,100819.69
2023-02-25T16:31:28.589Z,100837.00
2023-02-25T16:33:38.837Z,100829.22
2023-02-25T16:35:55.422Z,100839.16
2023-02-25T16:38:10.006Z,100851.75
2023-02-25T16:40:17.428Z,100856.44
2023-02-25T16:42:19.586Z,100857.59
2023-02-25T16:44:27.115Z,100862.28
2023-02-25T16:46:32.312Z,100861.47
2023-02-25T16:48:38.106Z,100869.66
2023-02-25T16:50:40.243Z,100873.53
2023-02-25T16:52:48.443Z,100869.28
2023-02-25T16:54:57.062Z,100880.34
2023-02-25T16:57:02.457Z,100877.66
2023-02-25T16:59:06.682Z,100897.63
2023-02-25T17:01:22.917Z,100901.19
2023-02-25T17:03:27.548Z,100899.63
2023-02-25T17:05:32.536Z,100893.72
2023-02-25T17:07:35.730Z,100908.84
2023-02-25T17:09:43.549Z,100917.09
2023-02-25T17:11:53.960Z,100923.44
2023-02-25T17:14:01.941Z,100927.28
2023-02-25T17:16:05.632Z,100927.44
2023-02-25T17:18:11.709Z,100937.19
2023-02-25T17:20:17.123Z,100930.28
2023-02-25T17:22:20.937Z,100932.97
2023-02-25T17:24:26.274Z,100941.03
2023-02-25T17:26:30.003Z,100953.78
2023-02-25T17:28:34.374Z,100959.16
2023-02-25T17:30:41.229Z,100958.31
2023-02-25T17:32:54.163Z,100960.13
2023-02-25T17:35:00.416Z,100951.22
2023-02-25T17:37:06.079Z,100963.13
2023-02-25T17:39:11.610Z,100972.34
2023-02-25T17:41:16.189Z,100974.03
2023-02-25T17:43:20.859Z,100978.72
2023-02-25T17:45:43.131Z,100987.63
2023-02-25T17:47:44.748Z,100981.72
2023-02-25T17:49:47.275Z,100983.56
2023-02-25T17:51:54.185Z,100977.34
2023-02-25T17:53:58.310Z,100990.91
2023-02-25T17:56:10.724Z,100994.31
2023-02-25T17:58:23.511Z,101004.19
2023-02-25T18:00:28.240Z,101004.50
2023-02-25T18:02:37.360Z,101008.19
2023-02-25T18:04:41.258Z,100994.06
2023-02-25T18:06:45.972Z,101008.34
2023-02-25T18:08:52.670Z,101007.31
2023-02-25T18:11:03.540Z,101015.38
2023-02-25T18:13:05.526Z,101013.72
2023-02-25T18:15:17.165Z,101017.41
2023-02-25T18:17:24.982Z,101015.69
2023-02-25T18:19:37.642Z,101017.41
2023-02-25T18:21:41.079Z,101027.44
2023-02-25T18:23:43.207Z,101018.69
2023-02-25T18:25:48.287Z,101024.91
2023-02-25T18:27:53.505Z,101024.91
2023-02-25T18:29:58.798Z,101031.13
2023-02-25T18:32:00.818Z,101031.94
2023-02-25T18:34:02.830Z,101043.72
2023-02-25T18:36:07.788Z,101036.50
2023-02-25T18:38:16.095Z,101042.84
2023-02-25T18:40:23.781Z,101044.56
2023-02-25T18:42:25.607Z,101052.63
2023-02-25T18:44:27.219Z,101058.00
2023-02-25T18:46:28.886Z,101056.13
2023-02-25T18:48:30.993Z,101055.13
2023-02-25T18:50:33.223Z,101066.72
2023-02-25T18:52:36.768Z,101071.25
2023-02-25T18:54:38.323Z,101074.78
2023-02-25T18:56:39.878Z,101073.94
2023-02-25T18:58:41.472Z,101076.63
2023-02-25T19:00:45.215Z,101081.16
2023-02-25T19:02:50.659Z,101088.22
2023-02-25T19:04:52.486Z,101090.91
2023-02-25T19:06:54.185Z,101093.59
2023-02-25T19:08:57.535Z,101099.81
2023-02-25T19:10:59.192Z,101082.97
2023-02-25T19:13:04.120Z,101090.91
2023-02-25T19:15:14.778Z,101100.78
2023-02-25T19:17:17.008Z,101100.13
2023-02-25T19:19:18.919Z,101098.28
2023-02-25T19:21:23.326Z,101103.66
2023-02-25T19:23:25.937Z,101110.84
2023-02-25T19:25:31.244Z,101110.84
2023-02-25T19:27:33.251Z,101111.84
2023-02-25T19:29:34.777Z,101117.22
2023-02-25T19:31:36.448Z,101117.22
2023-02-25T19:33:38.258Z,101121.59
2023-02-25T19:35:42.456Z,101129.97
2023-02-25T19:37:44.475Z,101128.81
2023-02-25T19:39:46.474Z,101133.31
2023-02-25T19:41:49.417Z,101136.88
2023-02-25T19:43:50.937Z,101139.56
2023-02-25T19:45:52.485Z,101146.75
2023-02-25T19:47:55.339Z,101148.47
2023-02-25T19:49:57.010Z,101147.59
2023-02-25T19:51:58.956Z,101152.97
2023-02-25T19:54:00.820Z,101149.44
2023-02-25T19:56:02.591Z,101154.81
2023-02-25T19:58:06.081Z,101155.66
2023-02-25T20:00:11.250Z,101167.41
2023-02-25T20:02:13.466Z,101174.59
2023-02-25T20:04:15.156Z,101175.44
2023-02-25T20:06:20.578Z,101175.44
2023-02-25T20:08:22.634Z,101179.13
2023-02-25T20:10:24.146Z,101188.19
2023-02-25T20:12:26.053Z,101186.38
2023-02-25T20:14:29.623Z,101188.03
2023-02-25T20:16:33.763Z,101200.59
2023-02-25T20:18:35.700Z,101201.63
2023-02-25T20:20:40.852Z,101202.47
2023-02-25T20:22:43.709Z,101215.19
2023-02-25T20:24:46.912Z,101213.34
2023-02-25T20:26:48.690Z,101210.66
2023-02-25T20:28:52.650Z,101212.50
2023-02-25T20:31:04.458Z,101221.28
2023-02-25T20:33:06.090Z,101213.34
2023-02-25T20:35:11.669Z,101219.72
2023-02-25T20:37:17.397Z,101217.88
2023-02-25T20:39:54.773Z,101224.94
2023-02-25T20:41:57.064Z,101234.16
2023-02-25T20:43:58.768Z,101236.97
2023-02-25T20:46:01.163Z,101233.44
2023-02-25T20:48:04.721Z,101230.75
2023-02-25T20:50:08.630Z,101243.47
2023-02-25T20:52:11.729Z,101240.81
2023-02-25T20:54:15.423Z,101250.53
2023-02-25T20:56:21.188Z,101254.91
2023-02-25T20:58:22.770Z,101265.78
2023-02-25T21:00:24.461Z,101251.53
2023-02-25T21:02:25.976Z,101250.69
2023-02-25T21:04:28.939Z,101254.50
2023-02-25T21:06:30.539Z,101255.34
2023-02-25T21:08:33.893Z,101268.63
2023-02-25T21:10:35.442Z,101273.16
2023-02-25T21:12:37.110Z,101273.16
2023-02-25T21:14:38.800Z,101268.75
2023-02-25T21:16:40.739Z,101273.44
2023-02-25T21:18:43.441Z,101280.53
2023-02-25T21:20:46.521Z,101286.88
2023-02-25T21:22:48.646Z,101285.91
2023-02-25T21:24:50.148Z,101288.72
2023-02-25T21:26:51.703Z,101281.78
2023-02-25T21:28:53.545Z,101288.03
2023-02-25T21:31:00.850Z,101296.91
2023-02-25T21:33:02.561Z,101305.81
2023-02-25T21:35:04.621Z,101295.22
2023-02-25T21:37:07.600Z,101301.56
2023-02-25T21:39:10.597Z,101292.66
2023-02-25T21:41:14.296Z,101300.72
2023-02-25T21:43:16.233Z,101302.44
2023-02-25T21:45:18.094Z,101299.19
2023-02-25T21:47:19.743Z,101303.69
2023-02-25T21:49:21.805Z,101307.06
2023-02-25T21:51:25.086Z,101313.47
2023-02-25T21:53:28.494Z,101309.06
2023-02-25T21:55:30.045Z,101318.84
2023-02-25T21:57:33.223Z,101314.28
2023-02-25T21:59:34.835Z,101324.31
2023-02-25T22:01:38.210Z,101324.19
2023-02-25T22:03:40.049Z,101326.03
2023-02-25T22:05:44.463Z,101331.41
2023-02-25T22:07:46.113Z,101335.91
2023-02-25T22:09:48.972Z,101334.22
2023-02-25T22:11:50.826Z,101338.59
2023-02-25T22:13:52.550Z,101342.28
2023-02-25T22:15:54.080Z,101338.72
2023-02-25T22:17:55.940Z,101343.13
2023-02-25T22:19:57.504Z,101348.50
2023-02-25T22:21:59.091Z,101344.81
2023-02-25T22:24:02.532Z,101347.50
2023-02-25T22:26:08.533Z,101358.25
2023-02-25T22:28:10.383Z,101345.69
2023-02-25T22:30:13.381Z,101350.03
2023-02-25T22:32:15.319Z,101350.19
2023-02-25T22:34:16.949Z,101357.41
2023-02-25T22:36:19.684Z,101356.56
2023-02-25T22:38:21.518Z,101367.16
2023-02-25T22:40:23.912Z,101364.31
2023-02-25T22:42:26.964Z,101361.78
2023-02-25T22:44:28.577Z,101372.53
2023-02-25T22:46:31.403Z,101376.88
2023-02-25T22:48:33.944Z,101378.59
2023-02-25T22:50:36.779Z,101378.59
2023-02-25T22:52:38.543Z,101382.97
2023-02-25T22:54:40.073Z,101392.03
2023-02-25T22:56:42.622Z,101391.16
2023-02-25T22:58:45.645Z,101387.50
2023-02-25T23:00:47.267Z,101394.56
2023-02-25T23:02:50.742Z,101402.63
2023-02-25T23:04:52.340Z,101407.16
2023-02-25T23:06:53.903Z,101410.81
2023-02-25T23:08:56.805Z,101403.63
2023-02-25T23:11:07.700Z,101409.69
2023-02-25T23:13:09.294Z,101411.66
2023-02-25T23:15:12.740Z,101421.69
2023-02-25T23:17:14.334Z,101419.72
2023-02-25T23:19:18.796Z,101421.44
2023-02-25T23:21:20.778Z,101420.56
2023-02-25T23:23:22.612Z,101421.56
2023-02-25T23:25:24.158Z,101429.63
2023-02-25T23:27:25.728Z,101435.84
2023-02-25T23:29:27.361Z,101432.44
2023-02-25T23:31:32.936Z,101432.28
2023-02-25T23:33:34.573Z,101440.34
2023-02-25T23:35:40.538Z,101444.75
2023-02-25T23:37:42.092Z,101446.56
2023-02-25T23:39:43.641Z,101437.66
2023-02-25T23:41:45.239Z,101445.72
2023-02-25T23:43:47.108Z,101454.63
2023-02-25T23:45:48.734Z,101455.50
2023-02-25T23:47:51.662Z,101459.88
2023-02-25T23:49:53.717Z,101462.56
2023-02-25T23:51:55.357Z,101456.34
2023-02-25T23:54:00.495Z,101468.91
2023-02-25T23:56:06.152Z,101471.59
2023-02-25T23:58:07.763Z,101476.00
